sensor_id;sensor_type;location;lat;lon;timestamp;temperature;humidity
37944;DHT22;23767;42.024;23.086;2024-03-02T00:00:07;10.00;99.90
37944;DHT22;23767;42.024;23.086;2024-03-02T00:02:46;10.10;99.90
37944;DHT22;23767;42.024;23.086;2024-03-02T00:05:21;10.20;99.90
37944;DHT22;23767;42.024;23.086;2024-03-02T00:07:59;10.10;99.90
37944;DHT22;23767;42.024;23.086;2024-03-02T00:10:26;10.10;99.90
37944;DHT22;23767;42.024;23.086;2024-03-02T00:12:57;10.20;99.90
37944;DHT22;23767;42.024;23.086;2024-03-02T00:15:48;10.30;99.90
37944;DHT22;23767;42.024;23.086;2024-03-02T00:20:55;9.70;99.90
37944;DHT22;23767;42.024;23.086;2024-03-02T00:23:23;9.80;99.90
37944;DHT22;23767;42.024;23.086;2024-03-02T00:25:53;10.00;99.90
37944;DHT22;23767;42.024;23.086;2024-03-02T00:28:21;10.10;99.90
37944;DHT22;23767;42.024;23.086;2024-03-02T00:33:36;10.30;99.90
37944;DHT22;23767;42.024;23.086;2024-03-02T00:36:04;10.30;99.90
37944;DHT22;23767;42.024;23.086;2024-03-02T00:38:30;10.40;99.90
37944;DHT22;23767;42.024;23.086;2024-03-02T00:40:59;10.40;99.90
37944;DHT22;23767;42.024;23.086;2024-03-02T00:46:03;10.30;99.90
37944;DHT22;23767;42.024;23.086;2024-03-02T00:48:29;10.30;99.90
37944;DHT22;23767;42.024;23.086;2024-03-02T00:50:57;10.40;99.90
37944;DHT22;23767;42.024;23.086;2024-03-02T00:53:24;10.40;99.90
37944;DHT22;23767;42.024;23.086;2024-03-02T00:55:52;10.30;99.90
37944;DHT22;23767;42.024;23.086;2024-03-02T00:58:17;10.30;99.90
37944;DHT22;23767;42.024;23.086;2024-03-02T01:00:43;10.40;99.90
37944;DHT22;23767;42.024;23.086;2024-03-02T01:03:09;10.40;99.90
37944;DHT22;23767;42.024;23.086;2024-03-02T01:05:36;10.20;99.90
37944;DHT22;23767;42.024;23.086;2024-03-02T01:08:02;10.10;99.90
37944;DHT22;23767;42.024;23.086;2024-03-02T01:10:28;10.10;99.90
37944;DHT22;23767;42.024;23.086;2024-03-02T01:12:53;10.20;99.90
37944;DHT22;23767;42.024;23.086;2024-03-02T01:15:19;10.20;99.90
37944;DHT22;23767;42.024;23.086;2024-03-02T01:17:45;10.20;99.90
37944;DHT22;23767;42.024;23.086;2024-03-02T01:20:11;10.10;99.90
37944;DHT22;23767;42.024;23.086;2024-03-02T01:22:37;10.00;99.90
37944;DHT22;23767;42.024;23.086;2024-03-02T01:25:03;9.90;99.90
37944;DHT22;23767;42.024;23.086;2024-03-02T01:27:29;9.80;99.90
37944;DHT22;23767;42.024;23.086;2024-03-02T01:29:54;10.00;99.90
37944;DHT22;23767;42.024;23.086;2024-03-02T01:32:20;10.00;99.90
37944;DHT22;23767;42.024;23.086;2024-03-02T01:34:46;9.90;99.90
37944;DHT22;23767;42.024;23.086;2024-03-02T01:37:12;10.00;99.90
37944;DHT22;23767;42.024;23.086;2024-03-02T01:39:37;10.00;99.90
37944;DHT22;23767;42.024;23.086;2024-03-02T01:42:03;10.00;99.90
37944;DHT22;23767;42.024;23.086;2024-03-02T01:44:29;10.10;99.90
37944;DHT22;23767;42.024;23.086;2024-03-02T01:46:54;10.10;99.90
37944;DHT22;23767;42.024;23.086;2024-03-02T01:49:20;10.00;99.90
37944;DHT22;23767;42.024;23.086;2024-03-02T01:51:46;9.80;99.90
37944;DHT22;23767;42.024;23.086;2024-03-02T01:54:11;9.80;99.90
37944;DHT22;23767;42.024;23.086;2024-03-02T01:56:37;9.80;99.90
37944;DHT22;23767;42.024;23.086;2024-03-02T01:59:03;9.80;99.90
37944;DHT22;23767;42.024;23.086;2024-03-02T02:01:29;9.90;99.90
37944;DHT22;23767;42.024;23.086;2024-03-02T02:03:55;10.00;99.90
37944;DHT22;23767;42.024;23.086;2024-03-02T02:06:21;10.00;99.90
37944;DHT22;23767;42.024;23.086;2024-03-02T02:08:47;10.10;99.90
37944;DHT22;23767;42.024;23.086;2024-03-02T02:11:15;10.10;99.90
37944;DHT22;23767;42.024;23.086;2024-03-02T02:13:41;10.10;99.90
37944;DHT22;23767;42.024;23.086;2024-03-02T02:16:07;10.10;99.90
37944;DHT22;23767;42.024;23.086;2024-03-02T02:18:33;10.10;99.90
37944;DHT22;23767;42.024;23.086;2024-03-02T02:20:59;10.00;99.90
37944;DHT22;23767;42.024;23.086;2024-03-02T02:23:25;10.10;99.90
37944;DHT22;23767;42.024;23.086;2024-03-02T02:25:50;10.10;99.90
37944;DHT22;23767;42.024;23.086;2024-03-02T02:28:16;10.10;99.90
37944;DHT22;23767;42.024;23.086;2024-03-02T02:30:42;10.10;99.90
37944;DHT22;23767;42.024;23.086;2024-03-02T02:33:08;10.20;99.90
37944;DHT22;23767;42.024;23.086;2024-03-02T02:35:34;10.10;99.90
37944;DHT22;23767;42.024;23.086;2024-03-02T02:38:00;10.10;99.90
37944;DHT22;23767;42.024;23.086;2024-03-02T02:40:26;10.20;99.90
37944;DHT22;23767;42.024;23.086;2024-03-02T02:42:53;10.10;99.90
37944;DHT22;23767;42.024;23.086;2024-03-02T02:45:18;10.10;99.90
37944;DHT22;23767;42.024;23.086;2024-03-02T02:47:44;10.10;99.90
37944;DHT22;23767;42.024;23.086;2024-03-02T02:50:11;10.10;99.90
37944;DHT22;23767;42.024;23.086;2024-03-02T02:52:39;10.10;99.90
37944;DHT22;23767;42.024;23.086;2024-03-02T02:55:08;10.10;99.90
37944;DHT22;23767;42.024;23.086;2024-03-02T02:57:34;10.10;99.90
37944;DHT22;23767;42.024;23.086;2024-03-02T03:00:15;10.10;99.90
37944;DHT22;23767;42.024;23.086;2024-03-02T03:02:41;9.60;99.90
37944;DHT22;23767;42.024;23.086;2024-03-02T03:05:08;9.60;99.90
37944;DHT22;23767;42.024;23.086;2024-03-02T03:07:34;9.70;99.90
37944;DHT22;23767;42.024;23.086;2024-03-02T03:10:02;9.70;99.90
37944;DHT22;23767;42.024;23.086;2024-03-02T03:12:29;9.60;99.90
37944;DHT22;23767;42.024;23.086;2024-03-02T03:14:55;9.50;99.90
37944;DHT22;23767;42.024;23.086;2024-03-02T03:17:21;9.50;99.90
37944;DHT22;23767;42.024;23.086;2024-03-02T03:19:47;9.50;99.90
37944;DHT22;23767;42.024;23.086;2024-03-02T03:22:13;9.60;99.90
37944;DHT22;23767;42.024;23.086;2024-03-02T03:24:38;9.70;99.90
37944;DHT22;23767;42.024;23.086;2024-03-02T03:27:04;9.90;99.90
37944;DHT22;23767;42.024;23.086;2024-03-02T03:29:30;9.80;99.90
37944;DHT22;23767;42.024;23.086;2024-03-02T03:31:55;9.70;99.90
37944;DHT22;23767;42.024;23.086;2024-03-02T03:34:21;9.80;99.90
37944;DHT22;23767;42.024;23.086;2024-03-02T03:36:47;9.90;99.90
37944;DHT22;23767;42.024;23.086;2024-03-02T03:39:12;9.90;99.90
37944;DHT22;23767;42.024;23.086;2024-03-02T03:41:38;9.80;99.90
37944;DHT22;23767;42.024;23.086;2024-03-02T03:44:05;9.60;99.90
37944;DHT22;23767;42.024;23.086;2024-03-02T03:46:31;9.80;99.90
37944;DHT22;23767;42.024;23.086;2024-03-02T03:48:56;9.80;99.90
37944;DHT22;23767;42.024;23.086;2024-03-02T03:51:22;9.90;99.90
37944;DHT22;23767;42.024;23.086;2024-03-02T03:53:51;9.70;99.90
37944;DHT22;23767;42.024;23.086;2024-03-02T03:56:16;9.40;99.90
37944;DHT22;23767;42.024;23.086;2024-03-02T03:58:42;9.40;99.90
37944;DHT22;23767;42.024;23.086;2024-03-02T04:01:07;9.60;99.90
37944;DHT22;23767;42.024;23.086;2024-03-02T04:03:33;9.70;99.90
37944;DHT22;23767;42.024;23.086;2024-03-02T04:05:59;9.70;99.90
37944;DHT22;23767;42.024;23.086;2024-03-02T04:08:24;9.70;99.90
37944;DHT22;23767;42.024;23.086;2024-03-02T04:10:50;9.70;99.90
37944;DHT22;23767;42.024;23.086;2024-03-02T04:13:16;9.70;99.90
37944;DHT22;23767;42.024;23.086;2024-03-02T04:15:41;9.80;99.90
37944;DHT22;23767;42.024;23.086;2024-03-02T04:18:07;9.90;99.90
37944;DHT22;23767;42.024;23.086;2024-03-02T04:20:33;9.90;99.90
37944;DHT22;23767;42.024;23.086;2024-03-02T04:22:58;9.90;99.90
37944;DHT22;23767;42.024;23.086;2024-03-02T04:25:24;10.00;99.90
37944;DHT22;23767;42.024;23.086;2024-03-02T04:27:50;10.00;99.90
37944;DHT22;23767;42.024;23.086;2024-03-02T04:30:15;10.00;99.90
37944;DHT22;23767;42.024;23.086;2024-03-02T04:32:41;10.00;99.90
37944;DHT22;23767;42.024;23.086;2024-03-02T04:35:07;10.00;99.90
37944;DHT22;23767;42.024;23.086;2024-03-02T04:37:34;10.10;99.90
37944;DHT22;23767;42.024;23.086;2024-03-02T04:40:00;10.00;99.90
37944;DHT22;23767;42.024;23.086;2024-03-02T04:42:25;10.00;99.90
37944;DHT22;23767;42.024;23.086;2024-03-02T04:44:51;10.00;99.90
37944;DHT22;23767;42.024;23.086;2024-03-02T04:47:17;10.00;99.90
37944;DHT22;23767;42.024;23.086;2024-03-02T04:49:42;10.00;99.90
37944;DHT22;23767;42.024;23.086;2024-03-02T04:52:09;10.00;99.90
37944;DHT22;23767;42.024;23.086;2024-03-02T04:54:34;10.00;99.90
37944;DHT22;23767;42.024;23.086;2024-03-02T04:57:20;10.00;99.90
37944;DHT22;23767;42.024;23.086;2024-03-02T04:59:45;10.00;99.90
37944;DHT22;23767;42.024;23.086;2024-03-02T05:02:11;10.00;99.90
37944;DHT22;23767;42.024;23.086;2024-03-02T05:04:39;10.10;99.90
37944;DHT22;23767;42.024;23.086;2024-03-02T05:07:05;10.10;99.90
37944;DHT22;23767;42.024;23.086;2024-03-02T05:09:31;10.10;99.90
37944;DHT22;23767;42.024;23.086;2024-03-02T05:11:57;10.10;99.90
37944;DHT22;23767;42.024;23.086;2024-03-02T05:14:48;10.00;99.90
37944;DHT22;23767;42.024;23.086;2024-03-02T05:17:15;10.00;99.90
37944;DHT22;23767;42.024;23.086;2024-03-02T05:19:40;10.10;99.90
37944;DHT22;23767;42.024;23.086;2024-03-02T05:22:06;10.00;99.90
37944;DHT22;23767;42.024;23.086;2024-03-02T05:24:31;9.90;99.90
37944;DHT22;23767;42.024;23.086;2024-03-02T05:26:57;10.00;99.90
37944;DHT22;23767;42.024;23.086;2024-03-02T05:29:23;9.90;99.90
37944;DHT22;23767;42.024;23.086;2024-03-02T05:31:49;9.90;99.90
37944;DHT22;23767;42.024;23.086;2024-03-02T05:34:14;10.00;99.90
37944;DHT22;23767;42.024;23.086;2024-03-02T05:36:40;10.00;99.90
37944;DHT22;23767;42.024;23.086;2024-03-02T05:39:06;10.00;99.90
37944;DHT22;23767;42.024;23.086;2024-03-02T05:41:35;10.00;99.90
37944;DHT22;23767;42.024;23.086;2024-03-02T05:44:00;10.00;99.90
37944;DHT22;23767;42.024;23.086;2024-03-02T05:46:27;10.00;99.90
37944;DHT22;23767;42.024;23.086;2024-03-02T05:48:52;10.10;99.90
37944;DHT22;23767;42.024;23.086;2024-03-02T05:51:18;10.10;99.90
37944;DHT22;23767;42.024;23.086;2024-03-02T05:53:44;10.20;99.90
37944;DHT22;23767;42.024;23.086;2024-03-02T05:56:09;10.30;99.90
37944;DHT22;23767;42.024;23.086;2024-03-02T05:58:35;10.30;99.90
37944;DHT22;23767;42.024;23.086;2024-03-02T06:01:20;10.40;99.90
37944;DHT22;23767;42.024;23.086;2024-03-02T06:03:45;10.40;99.90
37944;DHT22;23767;42.024;23.086;2024-03-02T06:06:11;10.30;99.90
37944;DHT22;23767;42.024;23.086;2024-03-02T06:08:37;10.30;99.90
37944;DHT22;23767;42.024;23.086;2024-03-02T06:11:03;10.30;99.90
37944;DHT22;23767;42.024;23.086;2024-03-02T06:13:29;10.30;99.90
37944;DHT22;23767;42.024;23.086;2024-03-02T06:15:54;10.40;99.90
37944;DHT22;23767;42.024;23.086;2024-03-02T06:18:20;10.20;99.90
37944;DHT22;23767;42.024;23.086;2024-03-02T06:20:46;10.10;99.90
37944;DHT22;23767;42.024;23.086;2024-03-02T06:23:11;10.00;99.90
37944;DHT22;23767;42.024;23.086;2024-03-02T06:25:37;9.80;99.90
37944;DHT22;23767;42.024;23.086;2024-03-02T06:28:03;9.90;99.90
37944;DHT22;23767;42.024;23.086;2024-03-02T06:30:29;9.60;99.90
37944;DHT22;23767;42.024;23.086;2024-03-02T06:32:55;9.60;99.90
37944;DHT22;23767;42.024;23.086;2024-03-02T06:35:21;9.50;99.90
37944;DHT22;23767;42.024;23.086;2024-03-02T06:37:46;9.50;99.90
37944;DHT22;23767;42.024;23.086;2024-03-02T06:40:12;9.40;99.90
37944;DHT22;23767;42.024;23.086;2024-03-02T06:42:37;9.10;99.90
37944;DHT22;23767;42.024;23.086;2024-03-02T06:45:04;9.30;99.90
37944;DHT22;23767;42.024;23.086;2024-03-02T06:47:29;9.60;99.90
37944;DHT22;23767;42.024;23.086;2024-03-02T06:49:55;9.80;99.90
37944;DHT22;23767;42.024;23.086;2024-03-02T06:52:22;9.90;99.90
37944;DHT22;23767;42.024;23.086;2024-03-02T06:54:48;9.90;99.90
37944;DHT22;23767;42.024;23.086;2024-03-02T06:57:14;10.10;99.90
37944;DHT22;23767;42.024;23.086;2024-03-02T06:59:39;9.80;99.90
37944;DHT22;23767;42.024;23.086;2024-03-02T07:02:05;9.50;99.90
37944;DHT22;23767;42.024;23.086;2024-03-02T07:04:30;9.70;99.90
37944;DHT22;23767;42.024;23.086;2024-03-02T07:06:56;10.00;99.90
37944;DHT22;23767;42.024;23.086;2024-03-02T07:09:22;10.20;99.90
37944;DHT22;23767;42.024;23.086;2024-03-02T07:11:48;10.50;99.90
37944;DHT22;23767;42.024;23.086;2024-03-02T07:14:14;10.80;99.90
37944;DHT22;23767;42.024;23.086;2024-03-02T07:16:40;11.00;99.90
37944;DHT22;23767;42.024;23.086;2024-03-02T07:19:08;11.20;99.90
37944;DHT22;23767;42.024;23.086;2024-03-02T07:21:34;11.30;99.90
37944;DHT22;23767;42.024;23.086;2024-03-02T07:24:00;11.50;99.90
37944;DHT22;23767;42.024;23.086;2024-03-02T07:26:29;11.50;99.90
37944;DHT22;23767;42.024;23.086;2024-03-02T07:28:56;11.60;99.90
37944;DHT22;23767;42.024;23.086;2024-03-02T07:31:22;11.90;99.90
37944;DHT22;23767;42.024;23.086;2024-03-02T07:33:48;12.00;99.90
37944;DHT22;23767;42.024;23.086;2024-03-02T07:36:13;12.10;99.90
37944;DHT22;23767;42.024;23.086;2024-03-02T07:38:39;12.10;99.90
37944;DHT22;23767;42.024;23.086;2024-03-02T07:41:06;12.30;99.90
37944;DHT22;23767;42.024;23.086;2024-03-02T07:43:32;12.40;99.90
37944;DHT22;23767;42.024;23.086;2024-03-02T07:45:59;12.50;99.90
37944;DHT22;23767;42.024;23.086;2024-03-02T07:48:25;12.40;99.90
37944;DHT22;23767;42.024;23.086;2024-03-02T07:50:50;12.50;99.90
37944;DHT22;23767;42.024;23.086;2024-03-02T07:53:16;12.60;99.90
37944;DHT22;23767;42.024;23.086;2024-03-02T07:55:42;12.80;99.90
37944;DHT22;23767;42.024;23.086;2024-03-02T07:58:08;12.60;99.90
37944;DHT22;23767;42.024;23.086;2024-03-02T08:00:34;12.50;99.90
37944;DHT22;23767;42.024;23.086;2024-03-02T08:03:01;12.20;99.90
37944;DHT22;23767;42.024;23.086;2024-03-02T08:05:26;12.40;99.90
37944;DHT22;23767;42.024;23.086;2024-03-02T08:07:53;12.70;99.90
37944;DHT22;23767;42.024;23.086;2024-03-02T08:10:18;12.20;99.90
37944;DHT22;23767;42.024;23.086;2024-03-02T08:12:45;11.50;99.90
37944;DHT22;23767;42.024;23.086;2024-03-02T08:15:11;11.40;99.90
37944;DHT22;23767;42.024;23.086;2024-03-02T08:17:39;11.40;99.90
37944;DHT22;23767;42.024;23.086;2024-03-02T08:20:11;11.80;99.90
37944;DHT22;23767;42.024;23.086;2024-03-02T08:22:37;12.10;99.90
37944;DHT22;23767;42.024;23.086;2024-03-02T08:25:03;12.40;99.90
37944;DHT22;23767;42.024;23.086;2024-03-02T08:27:28;12.50;99.90
37944;DHT22;23767;42.024;23.086;2024-03-02T08:29:54;12.60;99.90
37944;DHT22;23767;42.024;23.086;2024-03-02T08:32:20;12.90;99.90
37944;DHT22;23767;42.024;23.086;2024-03-02T08:34:45;13.10;99.90
37944;DHT22;23767;42.024;23.086;2024-03-02T08:37:11;13.30;99.90
37944;DHT22;23767;42.024;23.086;2024-03-02T08:39:37;13.50;99.90
37944;DHT22;23767;42.024;23.086;2024-03-02T08:42:02;13.60;99.90
37944;DHT22;23767;42.024;23.086;2024-03-02T08:44:29;13.50;99.90
37944;DHT22;23767;42.024;23.086;2024-03-02T08:46:55;13.50;99.90
37944;DHT22;23767;42.024;23.086;2024-03-02T08:49:21;13.40;99.90
37944;DHT22;23767;42.024;23.086;2024-03-02T08:51:47;13.60;99.90
37944;DHT22;23767;42.024;23.086;2024-03-02T08:54:23;13.50;99.90
37944;DHT22;23767;42.024;23.086;2024-03-02T08:56:49;13.90;99.90
37944;DHT22;23767;42.024;23.086;2024-03-02T08:59:16;14.00;99.90
37944;DHT22;23767;42.024;23.086;2024-03-02T09:01:41;14.30;99.90
37944;DHT22;23767;42.024;23.086;2024-03-02T09:04:07;14.50;99.90
37944;DHT22;23767;42.024;23.086;2024-03-02T09:06:36;14.60;99.90
37944;DHT22;23767;42.024;23.086;2024-03-02T09:09:02;14.70;99.90
37944;DHT22;23767;42.024;23.086;2024-03-02T09:11:28;14.80;99.90
37944;DHT22;23767;42.024;23.086;2024-03-02T09:13:54;15.00;99.90
37944;DHT22;23767;42.024;23.086;2024-03-02T09:16:21;14.90;99.90
37944;DHT22;23767;42.024;23.086;2024-03-02T09:18:47;14.90;99.90
37944;DHT22;23767;42.024;23.086;2024-03-02T09:21:13;14.90;99.90
37944;DHT22;23767;42.024;23.086;2024-03-02T09:23:38;14.70;99.90
37944;DHT22;23767;42.024;23.086;2024-03-02T09:26:05;14.70;99.90
37944;DHT22;23767;42.024;23.086;2024-03-02T09:28:31;14.90;99.90
37944;DHT22;23767;42.024;23.086;2024-03-02T09:30:56;14.90;99.90
37944;DHT22;23767;42.024;23.086;2024-03-02T09:33:22;14.20;99.90
37944;DHT22;23767;42.024;23.086;2024-03-02T09:35:48;13.90;99.90
37944;DHT22;23767;42.024;23.086;2024-03-02T09:38:14;14.10;99.90
37944;DHT22;23767;42.024;23.086;2024-03-02T09:40:41;13.90;99.90
37944;DHT22;23767;42.024;23.086;2024-03-02T09:43:07;13.50;99.90
37944;DHT22;23767;42.024;23.086;2024-03-02T09:45:34;13.40;99.90
37944;DHT22;23767;42.024;23.086;2024-03-02T09:47:59;13.80;99.90
37944;DHT22;23767;42.024;23.086;2024-03-02T09:50:25;13.60;99.90
37944;DHT22;23767;42.024;23.086;2024-03-02T09:52:52;13.40;99.90
37944;DHT22;23767;42.024;23.086;2024-03-02T09:55:18;13.50;99.90
37944;DHT22;23767;42.024;23.086;2024-03-02T09:57:45;13.60;99.90
37944;DHT22;23767;42.024;23.086;2024-03-02T10:00:11;13.40;99.90
37944;DHT22;23767;42.024;23.086;2024-03-02T10:02:40;12.70;99.90
37944;DHT22;23767;42.024;23.086;2024-03-02T10:05:10;12.70;99.90
37944;DHT22;23767;42.024;23.086;2024-03-02T10:07:37;12.70;99.90
37944;DHT22;23767;42.024;23.086;2024-03-02T10:10:15;12.30;99.90
37944;DHT22;23767;42.024;23.086;2024-03-02T10:12:41;12.40;99.90
37944;DHT22;23767;42.024;23.086;2024-03-02T10:15:07;12.60;99.90
37944;DHT22;23767;42.024;23.086;2024-03-02T10:17:34;12.70;99.90
37944;DHT22;23767;42.024;23.086;2024-03-02T10:20:26;12.90;99.90
37944;DHT22;23767;42.024;23.086;2024-03-02T10:22:54;12.90;99.90
37944;DHT22;23767;42.024;23.086;2024-03-02T10:25:33;13.00;99.90
37944;DHT22;23767;42.024;23.086;2024-03-02T10:27:59;12.90;99.90
37944;DHT22;23767;42.024;23.086;2024-03-02T10:30:28;13.20;99.90
37944;DHT22;23767;42.024;23.086;2024-03-02T10:32:55;13.70;99.90
37944;DHT22;23767;42.024;23.086;2024-03-02T10:35:22;14.20;99.90
37944;DHT22;23767;42.024;23.086;2024-03-02T10:37:49;14.60;99.90
37944;DHT22;23767;42.024;23.086;2024-03-02T10:40:15;14.70;99.90
37944;DHT22;23767;42.024;23.086;2024-03-02T10:42:42;15.00;99.90
37944;DHT22;23767;42.024;23.086;2024-03-02T10:45:09;15.20;99.90
37944;DHT22;23767;42.024;23.086;2024-03-02T10:47:37;15.30;99.90
37944;DHT22;23767;42.024;23.086;2024-03-02T10:50:04;15.20;99.90
37944;DHT22;23767;42.024;23.086;2024-03-02T10:52:34;15.30;99.90
37944;DHT22;23767;42.024;23.086;2024-03-02T10:55:00;14.30;99.90
37944;DHT22;23767;42.024;23.086;2024-03-02T10:57:27;14.40;99.90
37944;DHT22;23767;42.024;23.086;2024-03-02T11:00:02;14.50;99.90
37944;DHT22;23767;42.024;23.086;2024-03-02T11:02:29;14.80;99.90
37944;DHT22;23767;42.024;23.086;2024-03-02T11:04:56;14.90;99.90
37944;DHT22;23767;42.024;23.086;2024-03-02T11:07:27;14.90;99.90
37944;DHT22;23767;42.024;23.086;2024-03-02T11:10:04;15.10;99.90
37944;DHT22;23767;42.024;23.086;2024-03-02T11:12:38;15.40;99.90
37944;DHT22;23767;42.024;23.086;2024-03-02T11:15:18;15.70;99.90
37944;DHT22;23767;42.024;23.086;2024-03-02T11:17:47;15.70;99.90
37944;DHT22;23767;42.024;23.086;2024-03-02T11:20:14;15.80;99.90
37944;DHT22;23767;42.024;23.086;2024-03-02T11:22:40;15.90;99.90
37944;DHT22;23767;42.024;23.086;2024-03-02T11:25:26;15.60;99.90
37944;DHT22;23767;42.024;23.086;2024-03-02T11:33:07;15.60;99.90
37944;DHT22;23767;42.024;23.086;2024-03-02T11:35:37;15.60;99.90
37944;DHT22;23767;42.024;23.086;2024-03-02T11:38:04;15.60;99.90
37944;DHT22;23767;42.024;23.086;2024-03-02T11:40:30;15.60;99.90
37944;DHT22;23767;42.024;23.086;2024-03-02T11:43:02;15.70;99.90
37944;DHT22;23767;42.024;23.086;2024-03-02T11:45:28;15.80;99.90
37944;DHT22;23767;42.024;23.086;2024-03-02T11:47:54;15.80;99.90
37944;DHT22;23767;42.024;23.086;2024-03-02T11:50:31;15.90;99.90
37944;DHT22;23767;42.024;23.086;2024-03-02T11:52:58;16.00;99.90
37944;DHT22;23767;42.024;23.086;2024-03-02T11:55:26;16.00;99.90
37944;DHT22;23767;42.024;23.086;2024-03-02T11:57:54;16.10;99.90
37944;DHT22;23767;42.024;23.086;2024-03-02T12:00:20;15.90;99.90
37944;DHT22;23767;42.024;23.086;2024-03-02T12:02:48;15.80;99.90
37944;DHT22;23767;42.024;23.086;2024-03-02T12:05:25;15.70;99.90
37944;DHT22;23767;42.024;23.086;2024-03-02T12:08:02;15.60;99.90
37944;DHT22;23767;42.024;23.086;2024-03-02T12:10:30;15.50;99.90
37944;DHT22;23767;42.024;23.086;2024-03-02T12:13:05;15.70;99.90
37944;DHT22;23767;42.024;23.086;2024-03-02T12:15:38;15.60;99.90
37944;DHT22;23767;42.024;23.086;2024-03-02T12:18:04;15.40;99.90
37944;DHT22;23767;42.024;23.086;2024-03-02T12:20:31;15.40;99.90
37944;DHT22;23767;42.024;23.086;2024-03-02T12:22:59;15.40;99.90
37944;DHT22;23767;42.024;23.086;2024-03-02T12:25:26;15.70;99.90
37944;DHT22;23767;42.024;23.086;2024-03-02T12:27:58;16.10;99.90
37944;DHT22;23767;42.024;23.086;2024-03-02T12:30:26;16.10;99.90
37944;DHT22;23767;42.024;23.086;2024-03-02T12:32:54;15.60;99.90
37944;DHT22;23767;42.024;23.086;2024-03-02T12:35:21;15.00;99.90
37944;DHT22;23767;42.024;23.086;2024-03-02T12:37:48;14.80;99.90
37944;DHT22;23767;42.024;23.086;2024-03-02T12:40:16;14.60;99.90
37944;DHT22;23767;42.024;23.086;2024-03-02T12:42:44;14.40;99.90
37944;DHT22;23767;42.024;23.086;2024-03-02T12:45:10;14.40;99.90
37944;DHT22;23767;42.024;23.086;2024-03-02T12:47:36;14.80;99.90
37944;DHT22;23767;42.024;23.086;2024-03-02T12:50:03;15.00;99.90
37944;DHT22;23767;42.024;23.086;2024-03-02T12:52:30;14.80;99.90
37944;DHT22;23767;42.024;23.086;2024-03-02T12:55:01;15.10;99.90
37944;DHT22;23767;42.024;23.086;2024-03-02T12:57:29;15.30;99.90
37944;DHT22;23767;42.024;23.086;2024-03-02T13:00:04;15.30;99.90
37944;DHT22;23767;42.024;23.086;2024-03-02T13:02:41;15.40;99.90
37944;DHT22;23767;42.024;23.086;2024-03-02T13:05:08;15.20;99.90
37944;DHT22;23767;42.024;23.086;2024-03-02T13:07:38;15.50;99.90
37944;DHT22;23767;42.024;23.086;2024-03-02T13:10:04;15.70;99.90
37944;DHT22;23767;42.024;23.086;2024-03-02T13:12:31;15.60;99.90
37944;DHT22;23767;42.024;23.086;2024-03-02T13:14:58;15.40;99.90
37944;DHT22;23767;42.024;23.086;2024-03-02T13:17:24;15.00;99.90
37944;DHT22;23767;42.024;23.086;2024-03-02T13:19:57;15.10;99.90
37944;DHT22;23767;42.024;23.086;2024-03-02T13:22:23;15.10;99.90
37944;DHT22;23767;42.024;23.086;2024-03-02T13:24:50;15.30;99.90
37944;DHT22;23767;42.024;23.086;2024-03-02T13:27:16;15.30;99.90
37944;DHT22;23767;42.024;23.086;2024-03-02T13:29:42;15.00;99.90
37944;DHT22;23767;42.024;23.086;2024-03-02T13:32:08;15.10;99.90
37944;DHT22;23767;42.024;23.086;2024-03-02T13:34:35;15.40;99.90
37944;DHT22;23767;42.024;23.086;2024-03-02T13:37:03;15.60;99.90
37944;DHT22;23767;42.024;23.086;2024-03-02T13:39:30;15.20;99.90
37944;DHT22;23767;42.024;23.086;2024-03-02T13:41:57;15.30;99.90
37944;DHT22;23767;42.024;23.086;2024-03-02T13:44:30;15.50;99.90
37944;DHT22;23767;42.024;23.086;2024-03-02T13:46:56;15.70;99.90
37944;DHT22;23767;42.024;23.086;2024-03-02T13:49:21;15.50;99.40
37944;DHT22;23767;42.024;23.086;2024-03-02T13:51:48;15.30;99.90
37944;DHT22;23767;42.024;23.086;2024-03-02T13:54:14;15.20;99.80
37944;DHT22;23767;42.024;23.086;2024-03-02T13:56:39;14.80;99.90
37944;DHT22;23767;42.024;23.086;2024-03-02T13:59:06;14.80;99.90
37944;DHT22;23767;42.024;23.086;2024-03-02T14:01:32;14.70;99.90
37944;DHT22;23767;42.024;23.086;2024-03-02T14:03:58;14.50;99.90
37944;DHT22;23767;42.024;23.086;2024-03-02T14:06:24;14.40;99.90
37944;DHT22;23767;42.024;23.086;2024-03-02T14:08:52;14.50;99.90
37944;DHT22;23767;42.024;23.086;2024-03-02T14:11:18;14.70;99.90
37944;DHT22;23767;42.024;23.086;2024-03-02T14:13:44;14.90;99.90
37944;DHT22;23767;42.024;23.086;2024-03-02T14:16:15;14.70;99.60
37944;DHT22;23767;42.024;23.086;2024-03-02T14:18:41;14.90;99.90
37944;DHT22;23767;42.024;23.086;2024-03-02T14:21:07;15.00;99.90
37944;DHT22;23767;42.024;23.086;2024-03-02T14:23:33;14.70;99.90
37944;DHT22;23767;42.024;23.086;2024-03-02T14:25:59;14.80;99.90
37944;DHT22;23767;42.024;23.086;2024-03-02T14:28:25;15.00;99.90
37944;DHT22;23767;42.024;23.086;2024-03-02T14:30:50;15.10;99.90
37944;DHT22;23767;42.024;23.086;2024-03-02T14:33:16;15.30;99.90
37944;DHT22;23767;42.024;23.086;2024-03-02T14:35:42;15.40;99.90
37944;DHT22;23767;42.024;23.086;2024-03-02T14:38:08;15.20;99.50
37944;DHT22;23767;42.024;23.086;2024-03-02T14:40:33;15.10;99.70
37944;DHT22;23767;42.024;23.086;2024-03-02T14:42:59;15.20;99.80
37944;DHT22;23767;42.024;23.086;2024-03-02T14:45:25;15.10;99.90
37944;DHT22;23767;42.024;23.086;2024-03-02T14:47:51;15.20;99.20
37944;DHT22;23767;42.024;23.086;2024-03-02T14:50:17;15.10;99.20
37944;DHT22;23767;42.024;23.086;2024-03-02T14:52:44;14.80;99.10
37944;DHT22;23767;42.024;23.086;2024-03-02T14:55:13;14.40;99.90
37944;DHT22;23767;42.024;23.086;2024-03-02T14:57:38;14.30;99.90
37944;DHT22;23767;42.024;23.086;2024-03-02T15:00:05;14.10;99.90
37944;DHT22;23767;42.024;23.086;2024-03-02T15:02:34;14.00;99.90
37944;DHT22;23767;42.024;23.086;2024-03-02T15:05:00;14.00;99.90
37944;DHT22;23767;42.024;23.086;2024-03-02T15:07:25;14.00;99.90
37944;DHT22;23767;42.024;23.086;2024-03-02T15:09:51;14.10;99.90
37944;DHT22;23767;42.024;23.086;2024-03-02T15:12:17;14.10;99.90
37944;DHT22;23767;42.024;23.086;2024-03-02T15:14:43;13.90;99.90
37944;DHT22;23767;42.024;23.086;2024-03-02T15:17:15;13.90;99.90
37944;DHT22;23767;42.024;23.086;2024-03-02T15:19:45;14.00;99.90
37944;DHT22;23767;42.024;23.086;2024-03-02T15:22:11;14.00;99.90
37944;DHT22;23767;42.024;23.086;2024-03-02T15:24:36;14.20;99.90
37944;DHT22;23767;42.024;23.086;2024-03-02T15:27:03;14.20;99.90
37944;DHT22;23767;42.024;23.086;2024-03-02T15:29:36;14.20;99.90